sensor_id;sensor_type;location;lat;lon;timestamp;temperature;humidity
34137;DHT22;20414;50.860;4.382;2022-10-16T00:01:41;17.70;62.80
34137;DHT22;20414;50.860;4.382;2022-10-16T00:04:08;17.70;62.70
34137;DHT22;20414;50.860;4.382;2022-10-16T00:06:34;17.70;62.80
34137;DHT22;20414;50.860;4.382;2022-10-16T00:08:59;17.70;62.80
34137;DHT22;20414;50.860;4.382;2022-10-16T00:11:31;17.70;62.80
34137;DHT22;20414;50.860;4.382;2022-10-16T00:14:00;17.70;62.80
34137;DHT22;20414;50.860;4.382;2022-10-16T00:16:26;17.70;62.80
34137;DHT22;20414;50.860;4.382;2022-10-16T00:18:52;17.70;62.80
34137;DHT22;20414;50.860;4.382;2022-10-16T00:21:24;17.70;62.80
34137;DHT22;20414;50.860;4.382;2022-10-16T00:23:52;17.70;62.80
34137;DHT22;20414;50.860;4.382;2022-10-16T00:26:18;17.70;62.80
34137;DHT22;20414;50.860;4.382;2022-10-16T00:28:50;17.70;62.80
34137;DHT22;20414;50.860;4.382;2022-10-16T00:31:17;17.70;62.80
34137;DHT22;20414;50.860;4.382;2022-10-16T00:33:43;17.80;62.80
34137;DHT22;20414;50.860;4.382;2022-10-16T00:36:14;17.70;62.80
34137;DHT22;20414;50.860;4.382;2022-10-16T00:38:41;17.70;62.80
34137;DHT22;20414;50.860;4.382;2022-10-16T00:41:09;17.70;62.80
34137;DHT22;20414;50.860;4.382;2022-10-16T00:43:43;17.70;62.80
34137;DHT22;20414;50.860;4.382;2022-10-16T00:48:39;17.70;63.50
34137;DHT22;20414;50.860;4.382;2022-10-16T00:51:06;17.70;62.80
34137;DHT22;20414;50.860;4.382;2022-10-16T00:53:32;17.70;62.90
34137;DHT22;20414;50.860;4.382;2022-10-16T00:55:59;17.70;62.90
34137;DHT22;20414;50.860;4.382;2022-10-16T00:58:24;17.70;62.90
34137;DHT22;20414;50.860;4.382;2022-10-16T01:00:50;17.70;62.90
34137;DHT22;20414;50.860;4.382;2022-10-16T01:03:31;17.70;62.90
34137;DHT22;20414;50.860;4.382;2022-10-16T01:06:24;17.70;62.90
34137;DHT22;20414;50.860;4.382;2022-10-16T01:09:22;17.70;62.80
34137;DHT22;20414;50.860;4.382;2022-10-16T01:12:12;17.70;62.90
34137;DHT22;20414;50.860;4.382;2022-10-16T01:20:18;17.70;62.90
34137;DHT22;20414;50.860;4.382;2022-10-16T01:23:05;17.70;62.90
34137;DHT22;20414;50.860;4.382;2022-10-16T01:28:22;17.70;62.90
34137;DHT22;20414;50.860;4.382;2022-10-16T01:30:53;17.70;62.90
34137;DHT22;20414;50.860;4.382;2022-10-16T01:33:34;17.70;62.90
34137;DHT22;20414;50.860;4.382;2022-10-16T01:36:09;17.70;62.90
34137;DHT22;20414;50.860;4.382;2022-10-16T01:38:38;17.70;62.90
34137;DHT22;20414;50.860;4.382;2022-10-16T01:41:18;17.70;62.90
34137;DHT22;20414;50.860;4.382;2022-10-16T01:43:58;17.70;62.90
34137;DHT22;20414;50.860;4.382;2022-10-16T01:46:28;17.60;62.80
34137;DHT22;20414;50.860;4.382;2022-10-16T01:48:55;17.70;62.90
34137;DHT22;20414;50.860;4.382;2022-10-16T01:51:23;17.70;62.90
34137;DHT22;20414;50.860;4.382;2022-10-16T01:53:53;17.70;62.90
34137;DHT22;20414;50.860;4.382;2022-10-16T01:56:20;17.70;62.90
34137;DHT22;20414;50.860;4.382;2022-10-16T01:59:06;17.70;62.90
34137;DHT22;20414;50.860;4.382;2022-10-16T02:01:36;17.70;63.00
34137;DHT22;20414;50.860;4.382;2022-10-16T02:04:51;17.70;62.90
34137;DHT22;20414;50.860;4.382;2022-10-16T02:06:56;17.70;63.00
34137;DHT22;20414;50.860;4.382;2022-10-16T02:09:22;17.70;63.00
34137;DHT22;20414;50.860;4.382;2022-10-16T02:11:48;17.70;63.00
34137;DHT22;20414;50.860;4.382;2022-10-16T02:14:16;17.70;63.00
34137;DHT22;20414;50.860;4.382;2022-10-16T02:16:44;17.70;63.00
34137;DHT22;20414;50.860;4.382;2022-10-16T02:19:11;17.70;63.00
34137;DHT22;20414;50.860;4.382;2022-10-16T02:24:32;17.70;63.70
34137;DHT22;20414;50.860;4.382;2022-10-16T02:30:03;17.70;63.00
34137;DHT22;20414;50.860;4.382;2022-10-16T02:32:34;17.70;63.00
34137;DHT22;20414;50.860;4.382;2022-10-16T02:35:01;17.60;62.90
34137;DHT22;20414;50.860;4.382;2022-10-16T02:37:28;17.70;63.00
34137;DHT22;20414;50.860;4.382;2022-10-16T02:39:55;17.70;63.00
34137;DHT22;20414;50.860;4.382;2022-10-16T02:42:38;17.70;63.00
34137;DHT22;20414;50.860;4.382;2022-10-16T02:45:05;17.70;63.00
34137;DHT22;20414;50.860;4.382;2022-10-16T02:47:31;17.70;63.10
34137;DHT22;20414;50.860;4.382;2022-10-16T02:49:57;17.70;63.00
34137;DHT22;20414;50.860;4.382;2022-10-16T02:52:23;17.70;63.00
34137;DHT22;20414;50.860;4.382;2022-10-16T02:54:48;17.70;63.00
34137;DHT22;20414;50.860;4.382;2022-10-16T02:57:14;17.60;62.90
34137;DHT22;20414;50.860;4.382;2022-10-16T02:59:40;17.60;63.00
34137;DHT22;20414;50.860;4.382;2022-10-16T03:02:05;17.70;63.10
34137;DHT22;20414;50.860;4.382;2022-10-16T03:04:31;17.70;63.80
34137;DHT22;20414;50.860;4.382;2022-10-16T03:06:56;17.70;63.10
34137;DHT22;20414;50.860;4.382;2022-10-16T03:09:22;17.70;63.10
34137;DHT22;20414;50.860;4.382;2022-10-16T03:11:48;17.70;63.10
34137;DHT22;20414;50.860;4.382;2022-10-16T03:14:14;17.70;63.10
34137;DHT22;20414;50.860;4.382;2022-10-16T03:16:39;17.70;63.10
34137;DHT22;20414;50.860;4.382;2022-10-16T03:19:05;17.70;63.20
34137;DHT22;20414;50.860;4.382;2022-10-16T03:21:30;17.70;63.10
34137;DHT22;20414;50.860;4.382;2022-10-16T03:23:56;17.70;63.10
34137;DHT22;20414;50.860;4.382;2022-10-16T03:26:22;17.70;63.10
34137;DHT22;20414;50.860;4.382;2022-10-16T03:28:47;17.70;63.10
34137;DHT22;20414;50.860;4.382;2022-10-16T03:31:13;17.70;63.10
34137;DHT22;20414;50.860;4.382;2022-10-16T03:33:39;17.70;63.10
34137;DHT22;20414;50.860;4.382;2022-10-16T03:36:04;17.70;63.10
34137;DHT22;20414;50.860;4.382;2022-10-16T03:38:30;17.70;63.20
34137;DHT22;20414;50.860;4.382;2022-10-16T03:40:57;17.70;63.20
34137;DHT22;20414;50.860;4.382;2022-10-16T03:43:22;17.70;63.20
34137;DHT22;20414;50.860;4.382;2022-10-16T03:45:50;17.70;63.10
34137;DHT22;20414;50.860;4.382;2022-10-16T03:48:18;17.60;63.10
34137;DHT22;20414;50.860;4.382;2022-10-16T03:50:44;17.70;63.10
34137;DHT22;20414;50.860;4.382;2022-10-16T03:53:10;17.70;63.10
34137;DHT22;20414;50.860;4.382;2022-10-16T03:55:37;17.70;63.10
34137;DHT22;20414;50.860;4.382;2022-10-16T03:58:02;17.60;63.10
34137;DHT22;20414;50.860;4.382;2022-10-16T04:00:28;17.60;63.10
34137;DHT22;20414;50.860;4.382;2022-10-16T04:02:54;17.70;63.10
34137;DHT22;20414;50.860;4.382;2022-10-16T04:05:20;17.70;63.20
34137;DHT22;20414;50.860;4.382;2022-10-16T04:07:46;17.70;63.20
34137;DHT22;20414;50.860;4.382;2022-10-16T04:10:11;17.70;63.20
34137;DHT22;20414;50.860;4.382;2022-10-16T04:12:37;17.70;63.20
34137;DHT22;20414;50.860;4.382;2022-10-16T04:15:02;17.70;63.20
34137;DHT22;20414;50.860;4.382;2022-10-16T04:17:28;17.70;63.20
34137;DHT22;20414;50.860;4.382;2022-10-16T04:19:54;17.70;63.20
34137;DHT22;20414;50.860;4.382;2022-10-16T04:22:19;17.70;63.20
34137;DHT22;20414;50.860;4.382;2022-10-16T04:24:46;17.60;63.10
34137;DHT22;20414;50.860;4.382;2022-10-16T04:27:12;17.70;63.20
34137;DHT22;20414;50.860;4.382;2022-10-16T04:29:37;17.70;63.20
34137;DHT22;20414;50.860;4.382;2022-10-16T04:32:03;17.70;63.30
34137;DHT22;20414;50.860;4.382;2022-10-16T04:34:29;17.60;63.20
34137;DHT22;20414;50.860;4.382;2022-10-16T04:36:54;17.60;63.20
34137;DHT22;20414;50.860;4.382;2022-10-16T04:39:20;17.70;63.30
34137;DHT22;20414;50.860;4.382;2022-10-16T04:41:45;17.70;63.20
34137;DHT22;20414;50.860;4.382;2022-10-16T04:44:11;17.70;63.20
34137;DHT22;20414;50.860;4.382;2022-10-16T04:46:37;17.70;63.20
34137;DHT22;20414;50.860;4.382;2022-10-16T04:49:02;17.60;63.20
34137;DHT22;20414;50.860;4.382;2022-10-16T04:51:28;17.60;63.20
34137;DHT22;20414;50.860;4.382;2022-10-16T04:53:54;17.70;63.30
34137;DHT22;20414;50.860;4.382;2022-10-16T04:56:20;17.70;63.20
34137;DHT22;20414;50.860;4.382;2022-10-16T04:58:47;17.60;63.20
34137;DHT22;20414;50.860;4.382;2022-10-16T05:01:13;17.60;63.20
34137;DHT22;20414;50.860;4.382;2022-10-16T05:03:38;17.60;63.20
34137;DHT22;20414;50.860;4.382;2022-10-16T05:06:07;17.60;63.20
34137;DHT22;20414;50.860;4.382;2022-10-16T05:08:33;17.60;63.20
34137;DHT22;20414;50.860;4.382;2022-10-16T05:10:59;17.60;63.20
34137;DHT22;20414;50.860;4.382;2022-10-16T05:13:25;17.60;63.20
34137;DHT22;20414;50.860;4.382;2022-10-16T05:15:50;17.60;63.20
34137;DHT22;20414;50.860;4.382;2022-10-16T05:18:16;17.60;63.20
34137;DHT22;20414;50.860;4.382;2022-10-16T05:20:42;17.60;63.20
34137;DHT22;20414;50.860;4.382;2022-10-16T05:23:08;17.60;63.20
34137;DHT22;20414;50.860;4.382;2022-10-16T05:25:35;17.60;63.20
34137;DHT22;20414;50.860;4.382;2022-10-16T05:28:02;17.60;63.30
34137;DHT22;20414;50.860;4.382;2022-10-16T05:30:27;17.60;63.30
34137;DHT22;20414;50.860;4.382;2022-10-16T05:32:53;17.60;63.30
34137;DHT22;20414;50.860;4.382;2022-10-16T05:35:19;17.60;63.30
34137;DHT22;20414;50.860;4.382;2022-10-16T05:37:46;17.60;63.30
34137;DHT22;20414;50.860;4.382;2022-10-16T05:40:12;17.60;63.30
34137;DHT22;20414;50.860;4.382;2022-10-16T05:42:38;17.60;63.30
34137;DHT22;20414;50.860;4.382;2022-10-16T05:45:05;17.60;63.30
34137;DHT22;20414;50.860;4.382;2022-10-16T05:47:31;17.60;63.30
34137;DHT22;20414;50.860;4.382;2022-10-16T05:49:57;17.60;63.30
34137;DHT22;20414;50.860;4.382;2022-10-16T05:52:23;17.60;63.30
34137;DHT22;20414;50.860;4.382;2022-10-16T05:54:48;17.60;63.30
34137;DHT22;20414;50.860;4.382;2022-10-16T05:57:15;17.60;63.30
34137;DHT22;20414;50.860;4.382;2022-10-16T05:59:40;17.60;63.40
34137;DHT22;20414;50.860;4.382;2022-10-16T06:02:11;17.60;63.30
34137;DHT22;20414;50.860;4.382;2022-10-16T06:04:37;17.60;63.30
34137;DHT22;20414;50.860;4.382;2022-10-16T06:07:03;17.60;63.40
34137;DHT22;20414;50.860;4.382;2022-10-16T06:09:29;17.60;63.30
34137;DHT22;20414;50.860;4.382;2022-10-16T06:11:54;17.60;63.30
34137;DHT22;20414;50.860;4.382;2022-10-16T06:14:20;17.60;63.40
34137;DHT22;20414;50.860;4.382;2022-10-16T06:16:46;17.60;63.40
34137;DHT22;20414;50.860;4.382;2022-10-16T06:19:11;17.60;63.50
34137;DHT22;20414;50.860;4.382;2022-10-16T06:21:37;17.60;63.40
34137;DHT22;20414;50.860;4.382;2022-10-16T06:24:03;17.60;63.40
34137;DHT22;20414;50.860;4.382;2022-10-16T06:26:30;17.60;63.40
34137;DHT22;20414;50.860;4.382;2022-10-16T06:28:57;17.60;63.40
34137;DHT22;20414;50.860;4.382;2022-10-16T06:31:25;17.60;64.20
34137;DHT22;20414;50.860;4.382;2022-10-16T06:33:53;17.60;63.50
34137;DHT22;20414;50.860;4.382;2022-10-16T06:36:20;17.60;63.50
34137;DHT22;20414;50.860;4.382;2022-10-16T06:38:46;17.60;63.50
34137;DHT22;20414;50.860;4.382;2022-10-16T06:41:14;17.60;63.50
34137;DHT22;20414;50.860;4.382;2022-10-16T06:43:40;17.60;63.50
34137;DHT22;20414;50.860;4.382;2022-10-16T06:46:08;17.60;63.50
34137;DHT22;20414;50.860;4.382;2022-10-16T06:48:34;17.60;63.50
34137;DHT22;20414;50.860;4.382;2022-10-16T06:51:02;17.60;63.50
34137;DHT22;20414;50.860;4.382;2022-10-16T06:53:30;17.60;64.20
34137;DHT22;20414;50.860;4.382;2022-10-16T06:55:56;17.60;63.50
34137;DHT22;20414;50.860;4.382;2022-10-16T06:58:22;17.60;63.50
34137;DHT22;20414;50.860;4.382;2022-10-16T07:00:48;17.50;63.50
34137;DHT22;20414;50.860;4.382;2022-10-16T07:03:14;17.60;63.50
34137;DHT22;20414;50.860;4.382;2022-10-16T07:05:43;17.50;63.50
34137;DHT22;20414;50.860;4.382;2022-10-16T07:08:09;17.60;63.50
34137;DHT22;20414;50.860;4.382;2022-10-16T07:10:35;17.60;63.60
34137;DHT22;20414;50.860;4.382;2022-10-16T07:13:01;17.50;63.50
34137;DHT22;20414;50.860;4.382;2022-10-16T07:15:27;17.50;63.50
34137;DHT22;20414;50.860;4.382;2022-10-16T07:17:53;17.60;63.50
34137;DHT22;20414;50.860;4.382;2022-10-16T07:20:19;17.60;63.50
34137;DHT22;20414;50.860;4.382;2022-10-16T07:22:45;17.60;63.50
34137;DHT22;20414;50.860;4.382;2022-10-16T07:25:10;17.60;63.60
34137;DHT22;20414;50.860;4.382;2022-10-16T07:27:37;17.50;63.50
34137;DHT22;20414;50.860;4.382;2022-10-16T07:30:03;17.60;63.50
34137;DHT22;20414;50.860;4.382;2022-10-16T07:32:29;17.60;63.60
34137;DHT22;20414;50.860;4.382;2022-10-16T07:34:55;17.60;63.50
34137;DHT22;20414;50.860;4.382;2022-10-16T07:37:21;17.60;63.60
34137;DHT22;20414;50.860;4.382;2022-10-16T07:39:47;17.50;63.50
34137;DHT22;20414;50.860;4.382;2022-10-16T07:42:13;17.60;63.60
34137;DHT22;20414;50.860;4.382;2022-10-16T07:44:39;17.60;63.60
34137;DHT22;20414;50.860;4.382;2022-10-16T07:47:05;17.60;63.70
34137;DHT22;20414;50.860;4.382;2022-10-16T07:49:31;17.50;63.60
34137;DHT22;20414;50.860;4.382;2022-10-16T07:51:57;17.60;63.60
34137;DHT22;20414;50.860;4.382;2022-10-16T07:54:22;17.60;63.60
34137;DHT22;20414;50.860;4.382;2022-10-16T07:56:48;17.60;63.60
34137;DHT22;20414;50.860;4.382;2022-10-16T07:59:13;17.50;63.60
34137;DHT22;20414;50.860;4.382;2022-10-16T08:01:39;17.60;63.70
34137;DHT22;20414;50.860;4.382;2022-10-16T08:04:05;17.50;63.60
34137;DHT22;20414;50.860;4.382;2022-10-16T08:06:36;17.60;63.70
34137;DHT22;20414;50.860;4.382;2022-10-16T08:09:02;17.60;63.70
34137;DHT22;20414;50.860;4.382;2022-10-16T08:11:28;17.50;63.60
34137;DHT22;20414;50.860;4.382;2022-10-16T08:13:54;17.50;63.60
34137;DHT22;20414;50.860;4.382;2022-10-16T08:16:20;17.60;63.60
34137;DHT22;20414;50.860;4.382;2022-10-16T08:18:46;17.60;63.60
34137;DHT22;20414;50.860;4.382;2022-10-16T08:21:17;17.50;63.60
34137;DHT22;20414;50.860;4.382;2022-10-16T08:23:43;17.60;63.70
34137;DHT22;20414;50.860;4.382;2022-10-16T08:26:10;17.50;63.60
34137;DHT22;20414;50.860;4.382;2022-10-16T08:28:36;17.60;63.60
34137;DHT22;20414;50.860;4.382;2022-10-16T08:31:15;17.60;63.70
34137;DHT22;20414;50.860;4.382;2022-10-16T08:33:43;17.50;63.60
34137;DHT22;20414;50.860;4.382;2022-10-16T08:36:11;17.60;63.60
34137;DHT22;20414;50.860;4.382;2022-10-16T08:38:37;17.50;63.60
34137;DHT22;20414;50.860;4.382;2022-10-16T08:49:26;17.50;63.60
34137;DHT22;20414;50.860;4.382;2022-10-16T08:51:52;17.60;63.60
34137;DHT22;20414;50.860;4.382;2022-10-16T08:54:37;17.60;63.60
34137;DHT22;20414;50.860;4.382;2022-10-16T08:57:11;17.50;63.60
34137;DHT22;20414;50.860;4.382;2022-10-16T08:59:37;17.60;63.60
34137;DHT22;20414;50.860;4.382;2022-10-16T09:02:19;17.60;63.60
34137;DHT22;20414;50.860;4.382;2022-10-16T09:16:40;17.60;63.80
34137;DHT22;20414;50.860;4.382;2022-10-16T09:19:33;17.60;63.70
34137;DHT22;20414;50.860;4.382;2022-10-16T09:22:12;17.60;63.70
34137;DHT22;20414;50.860;4.382;2022-10-16T09:24:39;17.60;63.70
34137;DHT22;20414;50.860;4.382;2022-10-16T09:27:07;17.60;63.60
34137;DHT22;20414;50.860;4.382;2022-10-16T09:29:33;17.60;63.70
34137;DHT22;20414;50.860;4.382;2022-10-16T09:32:10;17.60;63.80
34137;DHT22;20414;50.860;4.382;2022-10-16T09:34:41;17.60;63.70
34137;DHT22;20414;50.860;4.382;2022-10-16T09:37:16;17.60;63.70
34137;DHT22;20414;50.860;4.382;2022-10-16T09:39:50;17.60;63.70
34137;DHT22;20414;50.860;4.382;2022-10-16T09:42:27;17.60;63.60
34137;DHT22;20414;50.860;4.382;2022-10-16T09:44:56;17.60;63.70
34137;DHT22;20414;50.860;4.382;2022-10-16T09:47:25;17.60;63.70
34137;DHT22;20414;50.860;4.382;2022-10-16T09:49:57;17.60;63.80
34137;DHT22;20414;50.860;4.382;2022-10-16T09:52:25;17.60;63.70
34137;DHT22;20414;50.860;4.382;2022-10-16T09:54:53;17.60;63.70
34137;DHT22;20414;50.860;4.382;2022-10-16T09:57:20;17.60;63.70
34137;DHT22;20414;50.860;4.382;2022-10-16T09:59:54;17.60;63.70
34137;DHT22;20414;50.860;4.382;2022-10-16T10:02:29;17.60;63.80
34137;DHT22;20414;50.860;4.382;2022-10-16T10:04:55;17.60;63.70
34137;DHT22;20414;50.860;4.382;2022-10-16T10:07:43;17.60;63.80
34137;DHT22;20414;50.860;4.382;2022-10-16T10:12:50;17.60;63.70
34137;DHT22;20414;50.860;4.382;2022-10-16T10:15:16;17.60;63.70
34137;DHT22;20414;50.860;4.382;2022-10-16T10:17:56;17.60;63.70
34137;DHT22;20414;50.860;4.382;2022-10-16T10:20:35;17.60;63.80
34137;DHT22;20414;50.860;4.382;2022-10-16T10:23:24;17.60;63.80
34137;DHT22;20414;50.860;4.382;2022-10-16T10:26:02;17.60;63.70
34137;DHT22;20414;50.860;4.382;2022-10-16T10:36:52;17.60;63.70
34137;DHT22;20414;50.860;4.382;2022-10-16T10:39:35;17.60;63.70
34137;DHT22;20414;50.860;4.382;2022-10-16T10:45:14;17.60;63.70
34137;DHT22;20414;50.860;4.382;2022-10-16T10:48:42;17.60;63.70
34137;DHT22;20414;50.860;4.382;2022-10-16T10:51:00;17.60;63.70
34137;DHT22;20414;50.860;4.382;2022-10-16T10:56:39;17.60;63.80
34137;DHT22;20414;50.860;4.382;2022-10-16T11:02:15;17.60;63.80
34137;DHT22;20414;50.860;4.382;2022-10-16T11:08:06;17.60;63.90
34137;DHT22;20414;50.860;4.382;2022-10-16T11:13:55;17.60;63.80
34137;DHT22;20414;50.860;4.382;2022-10-16T11:16:30;17.60;63.80
34137;DHT22;20414;50.860;4.382;2022-10-16T11:19:05;17.60;63.80
34137;DHT22;20414;50.860;4.382;2022-10-16T11:21:48;17.60;63.80
34137;DHT22;20414;50.860;4.382;2022-10-16T11:24:29;17.60;63.90
34137;DHT22;20414;50.860;4.382;2022-10-16T11:27:03;17.60;63.90
34137;DHT22;20414;50.860;4.382;2022-10-16T11:29:30;17.60;64.00
34137;DHT22;20414;50.860;4.382;2022-10-16T11:32:01;17.60;64.00
34137;DHT22;20414;50.860;4.382;2022-10-16T11:34:38;17.60;64.10
34137;DHT22;20414;50.860;4.382;2022-10-16T11:37:16;17.60;64.30
34137;DHT22;20414;50.860;4.382;2022-10-16T11:39:44;17.60;64.40
34137;DHT22;20414;50.860;4.382;2022-10-16T11:42:27;17.70;64.60
34137;DHT22;20414;50.860;4.382;2022-10-16T11:45:13;17.60;64.50
34137;DHT22;20414;50.860;4.382;2022-10-16T11:47:54;17.60;64.50
34137;DHT22;20414;50.860;4.382;2022-10-16T11:53:04;17.60;64.60
34137;DHT22;20414;50.860;4.382;2022-10-16T11:55:39;17.60;64.70
34137;DHT22;20414;50.860;4.382;2022-10-16T11:58:22;17.70;64.70
34137;DHT22;20414;50.860;4.382;2022-10-16T12:04:14;17.60;64.60
34137;DHT22;20414;50.860;4.382;2022-10-16T12:07:02;17.70;64.70
34137;DHT22;20414;50.860;4.382;2022-10-16T12:09:31;17.70;64.70
34137;DHT22;20414;50.860;4.382;2022-10-16T12:11:58;17.60;64.70
34137;DHT22;20414;50.860;4.382;2022-10-16T12:17:24;17.70;64.70
34137;DHT22;20414;50.860;4.382;2022-10-16T12:22:48;17.70;64.80
34137;DHT22;20414;50.860;4.382;2022-10-16T12:25:23;17.70;64.80
34137;DHT22;20414;50.860;4.382;2022-10-16T12:28:01;17.70;64.80
34137;DHT22;20414;50.860;4.382;2022-10-16T12:30:30;17.70;64.70
34137;DHT22;20414;50.860;4.382;2022-10-16T12:33:00;17.70;64.70
34137;DHT22;20414;50.860;4.382;2022-10-16T12:35:30;17.60;64.60
34137;DHT22;20414;50.860;4.382;2022-10-16T12:40:44;17.70;64.60
34137;DHT22;20414;50.860;4.382;2022-10-16T12:43:26;17.70;64.60
34137;DHT22;20414;50.860;4.382;2022-10-16T12:46:22;17.70;65.30
34137;DHT22;20414;50.860;4.382;2022-10-16T12:48:48;17.70;64.60
34137;DHT22;20414;50.860;4.382;2022-10-16T12:59:42;17.70;64.50
34137;DHT22;20414;50.860;4.382;2022-10-16T13:10:30;17.70;64.50
34137;DHT22;20414;50.860;4.382;2022-10-16T13:16:28;17.70;64.50
34137;DHT22;20414;50.860;4.382;2022-10-16T13:19:20;17.70;64.90
34137;DHT22;20414;50.860;4.382;2022-10-16T13:22:22;17.70;64.40
34137;DHT22;20414;50.860;4.382;2022-10-16T13:28:11;17.70;64.40
34137;DHT22;20414;50.860;4.382;2022-10-16T13:30:44;17.70;64.40
34137;DHT22;20414;50.860;4.382;2022-10-16T13:33:40;17.70;64.40
34137;DHT22;20414;50.860;4.382;2022-10-16T13:36:06;17.70;64.30
34137;DHT22;20414;50.860;4.382;2022-10-16T13:38:36;17.80;64.30
34137;DHT22;20414;50.860;4.382;2022-10-16T13:41:03;17.80;64.30
34137;DHT22;20414;50.860;4.382;2022-10-16T13:43:34;17.80;64.30
34137;DHT22;20414;50.860;4.382;2022-10-16T13:48:30;17.70;64.20
34137;DHT22;20414;50.860;4.382;2022-10-16T13:53:35;17.80;64.30
34137;DHT22;20414;50.860;4.382;2022-10-16T13:56:06;17.80;64.30
34137;DHT22;20414;50.860;4.382;2022-10-16T13:58:32;17.80;64.30
34137;DHT22;20414;50.860;4.382;2022-10-16T14:01:01;17.80;64.30
34137;DHT22;20414;50.860;4.382;2022-10-16T14:03:28;17.80;64.30
34137;DHT22;20414;50.860;4.382;2022-10-16T14:06:00;17.80;64.20
34137;DHT22;20414;50.860;4.382;2022-10-16T14:08:28;17.70;64.10
34137;DHT22;20414;50.860;4.382;2022-10-16T14:10:56;17.70;64.10
34137;DHT22;20414;50.860;4.382;2022-10-16T14:13:30;17.80;64.20
34137;DHT22;20414;50.860;4.382;2022-10-16T14:15:57;17.70;64.20
34137;DHT22;20414;50.860;4.382;2022-10-16T14:18:26;17.80;64.20
34137;DHT22;20414;50.860;4.382;2022-10-16T14:20:53;17.80;64.20
34137;DHT22;20414;50.860;4.382;2022-10-16T14:23:37;17.80;64.20
34137;DHT22;20414;50.860;4.382;2022-10-16T14:28:32;17.80;64.20
34137;DHT22;20414;50.860;4.382;2022-10-16T14:30:59;17.80;64.10
34137;DHT22;20414;50.860;4.382;2022-10-16T14:38:29;17.80;64.20
34137;DHT22;20414;50.860;4.382;2022-10-16T14:40:58;17.80;64.10
34137;DHT22;20414;50.860;4.382;2022-10-16T14:43:39;17.80;64.10
34137;DHT22;20414;50.860;4.382;2022-10-16T14:46:19;17.80;64.10
34137;DHT22;20414;50.860;4.382;2022-10-16T14:48:50;17.80;64.10
34137;DHT22;20414;50.860;4.382;2022-10-16T14:51:17;17.80;64.10
34137;DHT22;20414;50.860;4.382;2022-10-16T14:53:44;17.80;64.10
34137;DHT22;20414;50.860;4.382;2022-10-16T14:56:18;17.80;64.10
34137;DHT22;20414;50.860;4.382;2022-10-16T14:58:44;17.80;64.10
34137;DHT22;20414;50.860;4.382;2022-10-16T15:01:10;17.80;64.10
34137;DHT22;20414;50.860;4.382;2022-10-16T15:03:37;17.80;64.00
34137;DHT22;20414;50.860;4.382;2022-10-16T15:06:03;17.80;64.00
34137;DHT22;20414;50.860;4.382;2022-10-16T15:08:34;17.80;64.00
34137;DHT22;20414;50.860;4.382;2022-10-16T15:11:00;17.80;64.00
34137;DHT22;20414;50.860;4.382;2022-10-16T15:13:26;17.80;64.00
34137;DHT22;20414;50.860;4.382;2022-10-16T15:15:52;17.80;64.00
34137;DHT22;20414;50.860;4.382;2022-10-16T15:18:18;17.80;64.00
34137;DHT22;20414;50.860;4.382;2022-10-16T15:20:49;17.80;64.00
34137;DHT22;20414;50.860;4.382;2022-10-16T15:23:18;17.80;63.90
34137;DHT22;20414;50.860;4.382;2022-10-16T15:25:45;17.80;64.00
34137;DHT22;20414;50.860;4.382;2022-10-16T15:28:12;17.80;63.90
34137;DHT22;20414;50.860;4.382;2022-10-16T15:30:38;17.80;63.90
34137;DHT22;20414;50.860;4.382;2022-10-16T15:33:05;17.90;64.00
34137;DHT22;20414;50.860;4.382;2022-10-16T15:35:32;17.80;63.90
34137;DHT22;20414;50.860;4.382;2022-10-16T15:37:57;17.90;63.90
34137;DHT22;20414;50.860;4.382;2022-10-16T15:40:23;17.80;63.80
34137;DHT22;20414;50.860;4.382;2022-10-16T15:42:49;17.90;63.90
34137;DHT22;20414;50.860;4.382;2022-10-16T15:45:16;17.80;63.80
34137;DHT22;20414;50.860;4.382;2022-10-16T15:47:42;17.90;63.90
34137;DHT22;20414;50.860;4.382;2022-10-16T15:50:10;17.80;63.80
34137;DHT22;20414;50.860;4.382;2022-10-16T15:52:37;17.90;63.80
34137;DHT22;20414;50.860;4.382;2022-10-16T15:55:05;17.90;63.80
34137;DHT22;20414;50.860;4.382;2022-10-16T15:57:31;17.90;63.80
34137;DHT22;20414;50.860;4.382;2022-10-16T15:59:57;17.80;63.70
34137;DHT22;20414;50.860;4.382;2022-10-16T16:02:22;17.90;63.80
34137;DHT22;20414;50.860;4.382;2022-10-16T16:04:50;17.90;63.80
34137;DHT22;20414;50.860;4.382;2022-10-16T16:07:16;17.90;63.80
34137;DHT22;20414;50.860;4.382;2022-10-16T16:09:41;17.90;63.80
34137;DHT22;20414;50.860;4.382;2022-10-16T16:12:07;17.80;63.70
34137;DHT22;20414;50.860;4.382;2022-10-16T16:14:33;17.90;63.70
34137;DHT22;20414;50.860;4.382;2022-10-16T16:16:58;17.90;63.80
34137;DHT22;20414;50.860;4.382;2022-10-16T16:19:24;17.80;63.60
34137;DHT22;20414;50.860;4.382;2022-10-16T16:21:50;17.90;63.70
34137;DHT22;20414;50.860;4.382;2022-10-16T16:24:16;17.90;63.70
34137;DHT22;20414;50.860;4.382;2022-10-16T16:26:42;17.80;63.60
34137;DHT22;20414;50.860;4.382;2022-10-16T16:29:15;17.80;63.60
34137;DHT22;20414;50.860;4.382;2022-10-16T16:31:42;17.90;63.70
34137;DHT22;20414;50.860;4.382;2022-10-16T16:34:08;17.90;64.40
34137;DHT22;20414;50.860;4.382;2022-10-16T16:36:34;17.90;63.70
34137;DHT22;20414;50.860;4.382;2022-10-16T16:39:01;17.90;63.70
34137;DHT22;20414;50.860;4.382;2022-10-16T16:41:28;17.80;63.60
34137;DHT22;20414;50.860;4.382;2022-10-16T16:43:55;17.90;63.80
34137;DHT22;20414;50.860;4.382;2022-10-16T16:46:21;17.80;63.60
34137;DHT22;20414;50.860;4.382;2022-10-16T16:48:47;17.90;63.70
34137;DHT22;20414;50.860;4.382;2022-10-16T16:51:17;17.90;63.70
34137;DHT22;20414;50.860;4.382;2022-10-16T16:53:46;17.90;64.40
34137;DHT22;20414;50.860;4.382;2022-10-16T16:56:12;17.90;63.70
34137;DHT22;20414;50.860;4.382;2022-10-16T16:58:38;17.90;63.70
34137;DHT22;20414;50.860;4.382;2022-10-16T17:01:04;17.90;63.70
34137;DHT22;20414;50.860;4.382;2022-10-16T17:03:33;17.80;63.60
34137;DHT22;20414;50.860;4.382;2022-10-16T17:06:06;17.80;63.60
34137;DHT22;20414;50.860;4.382;2022-10-16T17:08:34;17.90;63.70
34137;DHT22;20414;50.860;4.382;2022-10-16T17:11:00;17.90;63.70
34137;DHT22;20414;50.860;4.382;2022-10-16T17:13:28;17.90;63.70
34137;DHT22;20414;50.860;4.382;2022-10-16T17:15:54;17.90;63.70
34137;DHT22;20414;50.860;4.382;2022-10-16T17:18:21;17.80;63.60
34137;DHT22;20414;50.860;4.382;2022-10-16T17:20:48;17.90;63.70
34137;DHT22;20414;50.860;4.382;2022-10-16T17:23:14;17.90;63.70
34137;DHT22;20414;50.860;4.382;2022-10-16T17:25:41;17.90;63.70
34137;DHT22;20414;50.860;4.382;2022-10-16T17:28:07;17.90;63.70
34137;DHT22;20414;50.860;4.382;2022-10-16T17:30:34;17.90;63.70
34137;DHT22;20414;50.860;4.382;2022-10-16T17:33:00;17.90;63.70
34137;DHT22;20414;50.860;4.382;2022-10-16T17:35:26;17.80;63.70
34137;DHT22;20414;50.860;4.382;2022-10-16T17:37:52;17.90;63.70